Terminal Aerodrome Forecast
Issued by NWS

Home | Current Version | Previous Version | Text Only | Print | Product List | Glossary On
Versions: 1 2 3 4 5 6 7 8 9 10 11 12 13 14 15
000
FTUS41 KBTV 290530
TAFMPV
TAF
KMPV 290530Z 2906/3006 VRB03KT P6SM SKC
     FM291500 16004KT P6SM BKN150 BKN200
     FM292100 17007KT P6SM OVC100
     FM300100 17009KT P6SM OVC050
     FM300300 17009KT 6SM -SN OVC035=

USA.gov is the U.S. government's official web portal to all federal, state and local government web resources and services.